Eurocargo Venezia — IBKS — position and weather

sailwx.info

Track history (hours):
 
Tides and Currents Weather Stations Pressure Air Temp Water Temp Dewpoint Dewpoint Depression Visibility Wind Speed Wind Dir Waves Ship Positions

Eurocargo Venezia

Last reported at 2014-Oct-02 12:33 UTC. Time now 2014-Oct-02 14:32 UTC.
Position N 43°03' E 010°24'.

Length 200 m; draft 7.7 m.

Type: Ship (hazmat cat A). MMSI: 247297200.

Date/timePositionNaut miles runAvg speedWind from/ knotsBaromVisibWave heightAir tempDewpointWater temp
2014-Oct-02 12:33N 43°03' E 010°24'1918.5
2014-Oct-02 11:34N 43°21' E 010°15'1312.6
2014-Oct-02 10:34N 43°33' E 010°18'1 1.5
2014-Oct-02 09:33N 43°35' E 010°18'0 0.0
2014-Oct-02 08:30N 43°35' E 010°18'0 0.0
2014-Oct-02 07:33N 43°35' E 010°18'0 0.0
2014-Oct-02 06:33N 43°35' E 010°18'0 0.0
2014-Oct-02 05:34N 43°35' E 010°18'0 0.0
2014-Oct-02 04:33N 43°35' E 010°18'0 0.0
2014-Oct-02 03:33N 43°35' E 010°18'1 0.7
2014-Oct-02 02:33N 43°34' E 010°18'9 9.3
2014-Oct-02 01:33N 43°30' E 010°07'1818.1
2014-Oct-02 00:33N 43°40' E 009°46'1918.6
2014-Oct-01 23:33N 43°54' E 009°29'1818.2
2014-Oct-01 22:33N 44°08' E 009°13'1818.3
2014-Oct-01 21:33N 44°22' E 008°57'4 3.5
2014-Oct-01 20:33N 44°24' E 008°53'0 0.0
2014-Oct-01 19:30N 44°24' E 008°53'0 0.0
2014-Oct-01 18:33N 44°24' E 008°53'0 0.0
2014-Oct-01 17:30N 44°24' E 008°53'0 0.0
2014-Oct-01 16:33N 44°24' E 008°53'0 0.0
2014-Oct-01 15:33N 44°24' E 008°53'0 0.0
2014-Oct-01 14:30N 44°24' E 008°53'0 0.0
2014-Oct-01 13:30N 44°24' E 008°53'0 0.3
2014-Oct-01 12:33N 44°24' E 008°54'1212.0
2014-Oct-01 11:34N 44°15' E 009°05'2019.6
2014-Oct-01 10:33N 44°00' E 009°22'2019.5
2014-Oct-01 09:33N 43°46' E 009°40'1918.9
2014-Oct-01 08:33N 43°32' E 009°58'1919.0
2014-Oct-01 07:33N 43°16' E 010°12'  
2014-Sep-28 00:06N 42°31' E 010°52'1018.5
2014-Sep-27 23:33N 42°39' E 010°43'1918.8
2014-Sep-27 22:34N 42°55' E 010°28'1918.6
2014-Sep-27 21:34N 43°11' E 010°16'1818.4
2014-Sep-27 20:33N 43°27' E 010°03'1918.9
2014-Sep-27 19:34N 43°41' E 009°46'1918.6
2014-Sep-27 18:33N 43°54' E 009°28'1918.9
2014-Sep-27 17:33N 44°09' E 009°11'1817.9
2014-Sep-27 16:33N 44°23' E 008°57'3 2.4
2014-Sep-27 15:29N 44°24' E 008°53'0 0.0
2014-Sep-27 14:32N 44°24' E 008°53'0 0.0
2014-Sep-27 13:32N 44°24' E 008°53'0 0.0
2014-Sep-27 12:32N 44°24' E 008°53'0 0.0
2014-Sep-27 11:29N 44°24' E 008°53'0 0.0
2014-Sep-27 10:32N 44°24' E 008°53'0 0.0
2014-Sep-27 09:32N 44°24' E 008°53'0 0.0
2014-Sep-27 08:32N 44°24' E 008°53'0 0.0
2014-Sep-27 07:32N 44°24' E 008°53'0 0.0
2014-Sep-27 06:32N 44°24' E 008°53'0 0.0
2014-Sep-27 05:32N 44°24' E 008°53'4 4.5
2014-Sep-27 04:34N 44°22' E 008°58'1515.2
2014-Sep-27 03:33N 44°10' E 009°11'1918.8
2014-Sep-27 02:33N 43°56' E 009°29'2019.8
2014-Sep-27 01:34N 43°40' E 009°46'2019.8
2014-Sep-27 00:33N 43°26' E 010°04'2020.2
2014-Sep-26 23:33N 43°08' E 010°18'2020.0
2014-Sep-26 22:33N 42°51' E 010°31'  
2014-Sep-23 12:34N 43°10' E 010°20'1919.1
2014-Sep-23 11:34N 43°28' E 010°12'8 7.8
2014-Sep-23 10:33N 43°35' E 010°18'0 0.0
2014-Sep-23 09:31N 43°35' E 010°18'0 0.0
2014-Sep-23 08:31N 43°35' E 010°18'0 0.0
2014-Sep-23 07:31N 43°35' E 010°18'0 0.0
2014-Sep-23 06:31N 43°35' E 010°18'0 0.0
2014-Sep-23 05:31N 43°35' E 010°18'1 0.6
2014-Sep-23 04:33N 43°34' E 010°18'6 5.5
2014-Sep-23 03:33N 43°30' E 010°13'6 6.2
2014-Sep-23 02:33N 43°30' E 010°05'9 9.0
2014-Sep-23 01:33N 43°33' E 009°53'1918.5
2014-Sep-23 00:33N 43°48' E 009°37'1817.8
2014-Sep-22 23:33N 44°01' E 009°20'1817.6
2014-Sep-22 22:33N 44°14' E 009°05'1312.9
2014-Sep-22 21:33N 44°24' E 008°53'0 0.0
2014-Sep-22 20:25N 44°24' E 008°53'0 0.0
2014-Sep-22 19:31N 44°24' E 008°53'0 0.0
2014-Sep-22 18:31N 44°24' E 008°53'0 0.0
2014-Sep-22 17:31N 44°24' E 008°53'0 0.0
2014-Sep-22 16:31N 44°24' E 008°53'0 0.0
2014-Sep-22 15:31N 44°24' E 008°53'0 0.0
2014-Sep-22 14:31N 44°24' E 008°53'0 0.0
2014-Sep-22 13:31N 44°24' E 008°53'  
Track history (hours):
 
Tides and Currents Weather Stations Pressure Air Temp Water Temp Dewpoint Dewpoint Depression Visibility Wind Speed Wind Dir Waves Ship Positions

Eurocargo Venezia

Last reported at 2014-Oct-02 12:33 UTC. Time now 2014-Oct-02 14:32 UTC.
Position N 43°03' E 010°24'.

Length 200 m; draft 7.7 m.

Type: Ship (hazmat cat A). MMSI: 247297200.

Date/timePositionNaut miles runAvg speedWind from/ knotsBaromVisibWave heightAir tempDewpointWater temp
2014-Oct-02 12:33N 43°03' E 010°24'1918.5
2014-Oct-02 11:34N 43°21' E 010°15'1312.6
2014-Oct-02 10:34N 43°33' E 010°18'1 1.5
2014-Oct-02 09:33N 43°35' E 010°18'0 0.0
2014-Oct-02 08:30N 43°35' E 010°18'0 0.0
2014-Oct-02 07:33N 43°35' E 010°18'0 0.0
2014-Oct-02 06:33N 43°35' E 010°18'0 0.0
2014-Oct-02 05:34N 43°35' E 010°18'0 0.0
2014-Oct-02 04:33N 43°35' E 010°18'0 0.0
2014-Oct-02 03:33N 43°35' E 010°18'1 0.7
2014-Oct-02 02:33N 43°34' E 010°18'9 9.3
2014-Oct-02 01:33N 43°30' E 010°07'1818.1
2014-Oct-02 00:33N 43°40' E 009°46'1918.6
2014-Oct-01 23:33N 43°54' E 009°29'1818.2
2014-Oct-01 22:33N 44°08' E 009°13'1818.3
2014-Oct-01 21:33N 44°22' E 008°57'4 3.5
2014-Oct-01 20:33N 44°24' E 008°53'0 0.0
2014-Oct-01 19:30N 44°24' E 008°53'0 0.0
2014-Oct-01 18:33N 44°24' E 008°53'0 0.0
2014-Oct-01 17:30N 44°24' E 008°53'0 0.0
2014-Oct-01 16:33N 44°24' E 008°53'0 0.0
2014-Oct-01 15:33N 44°24' E 008°53'0 0.0
2014-Oct-01 14:30N 44°24' E 008°53'0 0.0
2014-Oct-01 13:30N 44°24' E 008°53'0 0.3
2014-Oct-01 12:33N 44°24' E 008°54'1212.0
2014-Oct-01 11:34N 44°15' E 009°05'2019.6
2014-Oct-01 10:33N 44°00' E 009°22'2019.5
2014-Oct-01 09:33N 43°46' E 009°40'1918.9
2014-Oct-01 08:33N 43°32' E 009°58'1919.0
2014-Oct-01 07:33N 43°16' E 010°12'  
2014-Sep-28 00:06N 42°31' E 010°52'1018.5
2014-Sep-27 23:33N 42°39' E 010°43'1918.8
2014-Sep-27 22:34N 42°55' E 010°28'1918.6
2014-Sep-27 21:34N 43°11' E 010°16'1818.4
2014-Sep-27 20:33N 43°27' E 010°03'1918.9
2014-Sep-27 19:34N 43°41' E 009°46'1918.6
2014-Sep-27 18:33N 43°54' E 009°28'1918.9
2014-Sep-27 17:33N 44°09' E 009°11'1817.9
2014-Sep-27 16:33N 44°23' E 008°57'3 2.4
2014-Sep-27 15:29N 44°24' E 008°53'0 0.0
2014-Sep-27 14:32N 44°24' E 008°53'0 0.0
2014-Sep-27 13:32N 44°24' E 008°53'0 0.0
2014-Sep-27 12:32N 44°24' E 008°53'0 0.0
2014-Sep-27 11:29N 44°24' E 008°53'0 0.0
2014-Sep-27 10:32N 44°24' E 008°53'0 0.0
2014-Sep-27 09:32N 44°24' E 008°53'0 0.0
2014-Sep-27 08:32N 44°24' E 008°53'0 0.0
2014-Sep-27 07:32N 44°24' E 008°53'0 0.0
2014-Sep-27 06:32N 44°24' E 008°53'0 0.0
2014-Sep-27 05:32N 44°24' E 008°53'4 4.5
2014-Sep-27 04:34N 44°22' E 008°58'1515.2
2014-Sep-27 03:33N 44°10' E 009°11'1918.8
2014-Sep-27 02:33N 43°56' E 009°29'2019.8
2014-Sep-27 01:34N 43°40' E 009°46'2019.8
2014-Sep-27 00:33N 43°26' E 010°04'2020.2
2014-Sep-26 23:33N 43°08' E 010°18'2020.0
2014-Sep-26 22:33N 42°51' E 010°31'  
2014-Sep-23 12:34N 43°10' E 010°20'1919.1
2014-Sep-23 11:34N 43°28' E 010°12'8 7.8
2014-Sep-23 10:33N 43°35' E 010°18'0 0.0
2014-Sep-23 09:31N 43°35' E 010°18'0 0.0
2014-Sep-23 08:31N 43°35' E 010°18'0 0.0
2014-Sep-23 07:31N 43°35' E 010°18'0 0.0
2014-Sep-23 06:31N 43°35' E 010°18'0 0.0
2014-Sep-23 05:31N 43°35' E 010°18'1 0.6
2014-Sep-23 04:33N 43°34' E 010°18'6 5.5
2014-Sep-23 03:33N 43°30' E 010°13'6 6.2
2014-Sep-23 02:33N 43°30' E 010°05'9 9.0
2014-Sep-23 01:33N 43°33' E 009°53'1918.5
2014-Sep-23 00:33N 43°48' E 009°37'1817.8
2014-Sep-22 23:33N 44°01' E 009°20'1817.6
2014-Sep-22 22:33N 44°14' E 009°05'1312.9
2014-Sep-22 21:33N 44°24' E 008°53'0 0.0
2014-Sep-22 20:25N 44°24' E 008°53'0 0.0
2014-Sep-22 19:31N 44°24' E 008°53'0 0.0
2014-Sep-22 18:31N 44°24' E 008°53'0 0.0
2014-Sep-22 17:31N 44°24' E 008°53'0 0.0
2014-Sep-22 16:31N 44°24' E 008°53'0 0.0
2014-Sep-22 15:31N 44°24' E 008°53'0 0.0
2014-Sep-22 14:31N 44°24' E 008°53'0 0.0
2014-Sep-22 13:31N 44°24' E 008°53'  

Dump ship's entire track history